createdAt,value
2017-10-01T00:00:48.280Z,99.90
2017-10-01T00:03:15.739Z,99.90
2017-10-01T00:05:43.202Z,99.90
2017-10-01T00:08:10.649Z,99.90
2017-10-01T00:10:38.210Z,99.90
2017-10-01T00:13:05.671Z,99.90
2017-10-01T00:15:33.135Z,99.90
2017-10-01T00:18:00.595Z,99.90
2017-10-01T00:20:28.856Z,99.90
2017-10-01T00:22:56.410Z,99.90
2017-10-01T00:25:23.870Z,99.90
2017-10-01T00:27:51.432Z,99.90
2017-10-01T00:30:18.886Z,99.90
2017-10-01T00:32:47.171Z,99.90
2017-10-01T00:35:14.627Z,99.90
2017-10-01T00:37:42.112Z,99.90
2017-10-01T00:40:10.341Z,99.90
2017-10-01T00:42:37.801Z,99.90
2017-10-01T00:45:05.258Z,99.90
2017-10-01T00:47:32.736Z,99.90
2017-10-01T00:50:00.211Z,99.90
2017-10-01T00:52:27.771Z,99.90
2017-10-01T00:54:55.246Z,99.90
2017-10-01T00:57:23.474Z,99.90
2017-10-01T00:59:51.004Z,99.90
2017-10-01T01:02:18.468Z,99.90
2017-10-01T01:04:45.928Z,99.90
2017-10-01T01:07:13.411Z,99.90
2017-10-01T01:09:40.878Z,99.90
2017-10-01T01:12:09.159Z,99.90
2017-10-01T01:14:38.151Z,99.90
2017-10-01T01:17:05.714Z,99.90
2017-10-01T01:19:34.754Z,99.90
2017-10-01T01:22:02.224Z,99.90
2017-10-01T01:24:29.719Z,99.90
2017-10-01T01:26:57.277Z,99.90
2017-10-01T01:29:24.804Z,99.90
2017-10-01T01:31:52.251Z,99.90
2017-10-01T01:34:19.736Z,99.90
2017-10-01T01:36:47.224Z,99.90
2017-10-01T01:39:14.700Z,99.90
2017-10-01T01:41:42.931Z,99.90
2017-10-01T01:44:10.407Z,99.90
2017-10-01T01:46:37.974Z,99.90
2017-10-01T01:49:06.219Z,99.90
2017-10-01T01:51:33.711Z,99.90
2017-10-01T01:54:01.276Z,99.90
2017-10-01T01:56:30.235Z,99.90
2017-10-01T01:58:57.702Z,99.90
2017-10-01T02:01:25.179Z,99.90
2017-10-01T02:03:52.640Z,99.90
2017-10-01T02:06:24.499Z,99.90
2017-10-01T02:08:53.493Z,99.90
2017-10-01T02:11:20.946Z,99.90
2017-10-01T02:13:48.518Z,99.90
2017-10-01T02:16:15.966Z,99.90
2017-10-01T02:18:43.434Z,99.90
2017-10-01T02:21:10.891Z,99.90
2017-10-01T02:23:38.363Z,99.90
2017-10-01T02:26:06.593Z,99.90
2017-10-01T02:28:34.078Z,99.90
2017-10-01T02:31:02.849Z,99.90
2017-10-01T02:33:30.311Z,99.90
2017-10-01T02:35:57.773Z,99.90
2017-10-01T02:38:25.238Z,99.90
2017-10-01T02:40:52.799Z,99.90
2017-10-01T02:43:20.258Z,99.90
2017-10-01T02:45:49.229Z,99.90
2017-10-01T02:48:16.697Z,99.90
2017-10-01T02:50:44.275Z,99.90
2017-10-01T02:53:11.730Z,99.90
2017-10-01T02:55:39.967Z,99.90
2017-10-01T02:58:07.455Z,99.90
2017-10-01T03:00:35.024Z,99.90
2017-10-01T03:03:02.475Z,99.90
2017-10-01T03:05:30.030Z,99.90
2017-10-01T03:07:57.492Z,99.90
2017-10-01T03:10:24.963Z,99.90
2017-10-01T03:12:53.194Z,99.90
2017-10-01T03:15:20.665Z,99.90
2017-10-01T03:17:48.174Z,99.90
2017-10-01T03:20:16.496Z,99.90
2017-10-01T03:22:43.947Z,99.90
2017-10-01T03:25:11.443Z,99.90
2017-10-01T03:27:39.687Z,99.90
2017-10-01T03:30:07.170Z,99.90
2017-10-01T03:32:34.625Z,99.90
2017-10-01T03:35:02.094Z,99.90
2017-10-01T03:37:29.654Z,99.90
2017-10-01T03:39:57.121Z,99.90
2017-10-01T03:42:24.590Z,99.90
2017-10-01T03:44:52.823Z,99.90
2017-10-01T03:47:20.312Z,99.90
2017-10-01T03:49:47.765Z,99.90
2017-10-01T03:52:15.326Z,99.90
2017-10-01T03:54:43.549Z,99.90
2017-10-01T03:57:11.064Z,99.90
2017-10-01T03:59:40.050Z,99.90
2017-10-01T04:02:08.321Z,99.90
2017-10-01T04:04:35.773Z,99.90
2017-10-01T04:07:03.342Z,99.90
2017-10-01T04:09:30.802Z,99.90
2017-10-01T04:11:58.579Z,99.90
2017-10-01T04:14:26.028Z,99.90
2017-10-01T04:16:53.498Z,99.90
2017-10-01T04:19:21.042Z,99.90
2017-10-01T04:21:48.619Z,99.90
2017-10-01T04:24:16.165Z,99.90
2017-10-01T04:26:43.638Z,99.90
2017-10-01T04:29:11.085Z,99.90
2017-10-01T04:31:40.062Z,99.90
2017-10-01T04:34:07.518Z,99.90
2017-10-01T04:36:35.095Z,99.90
2017-10-01T04:39:03.394Z,99.90
2017-10-01T04:41:31.747Z,99.90
2017-10-01T04:43:59.206Z,99.90
2017-10-01T04:46:26.687Z,99.90
2017-10-01T04:48:54.145Z,99.90
2017-10-01T04:51:21.687Z,99.90
2017-10-01T04:53:50.677Z,99.90
2017-10-01T04:56:18.159Z,99.90
2017-10-01T04:58:45.709Z,99.90
2017-10-01T05:01:13.271Z,99.90
2017-10-01T05:03:40.821Z,99.90
2017-10-01T05:06:08.282Z,99.90
2017-10-01T05:08:37.256Z,99.90
2017-10-01T05:11:04.711Z,99.90
2017-10-01T05:13:32.289Z,99.90
2017-10-01T05:16:00.015Z,99.90
2017-10-01T05:18:27.470Z,99.90
2017-10-01T05:20:54.948Z,99.90
2017-10-01T05:23:22.410Z,99.90
2017-10-01T05:25:49.895Z,99.90
2017-10-01T05:28:17.375Z,99.90
2017-10-01T05:30:45.603Z,99.90
2017-10-01T05:33:13.065Z,99.90
2017-10-01T05:35:40.641Z,99.90
2017-10-01T05:38:08.107Z,99.90
2017-10-01T05:40:35.658Z,99.90
2017-10-01T05:43:03.215Z,99.90
2017-10-01T05:45:30.678Z,99.90
2017-10-01T05:47:58.134Z,99.90
2017-10-01T05:50:27.986Z,99.90
2017-10-01T05:52:59.758Z,99.90
2017-10-01T05:55:27.225Z,99.90
2017-10-01T05:57:56.450Z,99.90
2017-10-01T06:00:23.928Z,99.90
2017-10-01T06:02:54.116Z,99.90
2017-10-01T06:05:22.302Z,99.90
2017-10-01T06:07:49.835Z,99.90
2017-10-01T06:10:17.479Z,99.90
2017-10-01T06:12:45.126Z,99.90
2017-10-01T06:15:13.121Z,99.90
2017-10-01T06:17:40.633Z,99.90
2017-10-01T06:20:08.929Z,99.90
2017-10-01T06:22:36.427Z,99.90
2017-10-01T06:25:03.898Z,99.90
2017-10-01T06:27:31.367Z,99.90
2017-10-01T06:29:58.851Z,99.90
2017-10-01T06:32:26.309Z,99.90
2017-10-01T06:34:53.791Z,99.90
2017-10-01T06:37:21.318Z,99.90
2017-10-01T06:39:48.804Z,99.90
2017-10-01T06:42:16.263Z,99.90
2017-10-01T06:44:44.522Z,99.90
2017-10-01T06:47:12.075Z,99.90
2017-10-01T06:49:39.633Z,99.90
2017-10-01T06:52:07.102Z,99.90
2017-10-01T06:54:34.653Z,99.90
2017-10-01T06:57:02.128Z,99.90
2017-10-01T06:59:29.589Z,99.90
2017-10-01T07:01:57.842Z,99.90
2017-10-01T07:04:25.306Z,99.90
2017-10-01T07:06:52.864Z,99.90
2017-10-01T07:09:20.327Z,99.90
2017-10-01T07:11:49.321Z,99.90
2017-10-01T07:14:17.545Z,99.90
2017-10-01T07:16:45.014Z,99.90
2017-10-01T07:19:12.515Z,99.90
2017-10-01T07:21:39.982Z,99.90
2017-10-01T07:24:07.437Z,99.90
2017-10-01T07:26:34.918Z,99.90
2017-10-01T07:29:03.143Z,99.90
2017-10-01T07:31:30.649Z,99.90
2017-10-01T07:33:58.910Z,99.90
2017-10-01T07:36:26.395Z,99.90
2017-10-01T07:38:54.631Z,99.90
2017-10-01T07:41:22.190Z,99.90
2017-10-01T07:43:49.754Z,99.90
2017-10-01T07:46:17.225Z,99.90
2017-10-01T07:48:44.694Z,99.90
2017-10-01T07:51:12.942Z,99.90
2017-10-01T07:53:40.497Z,99.90
2017-10-01T07:56:07.983Z,99.90
2017-10-01T07:58:35.447Z,99.90
2017-10-01T08:01:03.703Z,99.90
2017-10-01T08:03:31.169Z,99.90
2017-10-01T08:05:58.734Z,99.90
2017-10-01T08:08:26.279Z,99.90
2017-10-01T08:10:53.737Z,99.90
2017-10-01T08:13:22.713Z,99.90
2017-10-01T08:15:50.189Z,99.90
2017-10-01T08:18:17.656Z,99.70
2017-10-01T08:20:45.146Z,99.90
2017-10-01T08:23:12.624Z,99.80
2017-10-01T08:25:40.122Z,99.90
2017-10-01T08:28:07.682Z,99.90
2017-10-01T08:30:35.239Z,99.90
2017-10-01T08:33:02.698Z,99.90
2017-10-01T08:35:30.174Z,99.50
2017-10-01T08:37:57.710Z,99.50
2017-10-01T08:40:25.314Z,98.40
2017-10-01T08:42:52.845Z,98.70
2017-10-01T08:45:20.330Z,99.40
2017-10-01T08:47:48.559Z,99.90
2017-10-01T08:50:16.034Z,99.90
2017-10-01T08:52:44.257Z,99.50
2017-10-01T08:55:11.725Z,99.50
2017-10-01T08:57:39.226Z,98.80
2017-10-01T09:00:07.472Z,98.70
2017-10-01T09:02:34.962Z,98.70
2017-10-01T09:05:03.963Z,98.90
2017-10-01T09:07:31.528Z,98.90
2017-10-01T09:09:59.030Z,97.20
2017-10-01T09:12:26.552Z,97.90
2017-10-01T09:14:54.009Z,97.80
2017-10-01T09:17:21.478Z,97.90
2017-10-01T09:19:49.709Z,97.80
2017-10-01T09:22:17.256Z,97.80
2017-10-01T09:24:44.745Z,97.20
2017-10-01T09:27:12.410Z,97.10
2017-10-01T09:29:39.867Z,96.70
2017-10-01T09:32:07.340Z,96.50
2017-10-01T09:34:34.807Z,95.90
2017-10-01T09:37:03.050Z,95.80
2017-10-01T09:39:30.516Z,95.70
2017-10-01T09:41:57.984Z,95.30
2017-10-01T09:44:25.438Z,94.30
2017-10-01T09:46:53.521Z,94.40
2017-10-01T09:49:20.978Z,94.80
2017-10-01T09:51:48.461Z,94.20
2017-10-01T09:54:16.795Z,93.10
2017-10-01T09:56:44.253Z,93.00
2017-10-01T09:59:11.730Z,93.80
2017-10-01T10:01:39.197Z,93.70
2017-10-01T10:04:07.442Z,92.70
2017-10-01T10:06:34.907Z,92.50
2017-10-01T10:09:02.382Z,92.40
2017-10-01T10:11:29.955Z,91.00
2017-10-01T10:13:58.190Z,90.20
2017-10-01T10:16:25.650Z,90.20
2017-10-01T10:18:53.126Z,90.10
2017-10-01T10:21:20.680Z,90.00
2017-10-01T10:23:48.148Z,89.50
2017-10-01T10:26:15.704Z,86.50
2017-10-01T10:28:43.178Z,86.00
2017-10-01T10:31:10.642Z,84.10
2017-10-01T10:33:38.868Z,77.10
2017-10-01T10:36:06.345Z,77.10
2017-10-01T10:38:33.819Z,80.50
2017-10-01T10:41:01.331Z,77.20
2017-10-01T10:43:28.796Z,80.70
2017-10-01T10:45:56.284Z,79.10
2017-10-01T10:48:23.734Z,80.50
2017-10-01T10:50:51.308Z,76.20
2017-10-01T10:53:18.761Z,78.50
2017-10-01T10:55:46.232Z,78.50
2017-10-01T10:58:13.784Z,76.00
2017-10-01T11:00:41.339Z,77.30
2017-10-01T11:03:08.904Z,79.30
2017-10-01T11:05:36.458Z,80.40
2017-10-01T11:08:03.911Z,77.20
2017-10-01T11:10:31.386Z,80.20
2017-10-01T11:12:58.855Z,81.00
2017-10-01T11:15:26.395Z,78.80
2017-10-01T11:17:53.859Z,80.40
2017-10-01T11:20:21.318Z,78.00
2017-10-01T11:22:48.911Z,77.90
2017-10-01T11:25:16.394Z,75.80
2017-10-01T11:27:43.894Z,75.00
2017-10-01T11:30:11.354Z,76.10
2017-10-01T11:32:38.839Z,76.30
2017-10-01T11:35:07.066Z,74.70
2017-10-01T11:37:34.530Z,74.70
2017-10-01T11:40:01.989Z,75.60
2017-10-01T11:42:29.471Z,75.20
2017-10-01T11:44:56.921Z,75.20
2017-10-01T11:47:24.402Z,74.20
2017-10-01T11:49:52.632Z,72.10
2017-10-01T11:52:20.116Z,72.00
2017-10-01T11:54:47.569Z,71.30
2017-10-01T11:57:15.042Z,71.60
2017-10-01T11:59:42.581Z,70.10
2017-10-01T12:02:10.243Z,68.50
2017-10-01T12:04:37.807Z,70.60
2017-10-01T12:07:05.367Z,69.90
2017-10-01T12:09:32.818Z,69.00
2017-10-01T12:12:00.278Z,71.70
2017-10-01T12:14:27.732Z,74.20
2017-10-01T12:16:55.187Z,75.30
2017-10-01T12:19:22.649Z,71.50
2017-10-01T12:21:50.120Z,73.50
2017-10-01T12:24:17.685Z,73.00
2017-10-01T12:26:45.148Z,71.90
2017-10-01T12:29:13.414Z,72.70
2017-10-01T12:31:40.973Z,72.70
2017-10-01T12:34:08.541Z,71.80
2017-10-01T12:36:36.758Z,74.10
2017-10-01T12:39:04.290Z,74.70
2017-10-01T12:41:31.738Z,74.80
2017-10-01T12:43:59.213Z,73.80
2017-10-01T12:46:27.822Z,71.90
2017-10-01T12:48:56.050Z,71.10
2017-10-01T12:51:23.503Z,71.00
2017-10-01T12:53:50.979Z,73.30
2017-10-01T12:56:18.421Z,72.20
2017-10-01T12:58:45.890Z,71.10
2017-10-01T13:01:19.138Z,69.90
2017-10-01T13:03:46.607Z,70.70
2017-10-01T13:06:14.082Z,70.30
2017-10-01T13:08:41.567Z,69.80
2017-10-01T13:11:09.038Z,71.40
2017-10-01T13:13:36.558Z,72.40
2017-10-01T13:16:04.029Z,71.50
2017-10-01T13:18:31.488Z,70.50
2017-10-01T13:20:58.983Z,70.80
2017-10-01T13:23:27.206Z,71.20
2017-10-01T13:25:54.682Z,71.20
2017-10-01T13:28:22.141Z,71.60
2017-10-01T13:30:49.613Z,73.70
2017-10-01T13:33:17.070Z,73.30
2017-10-01T13:35:44.610Z,73.00
2017-10-01T13:38:12.063Z,74.20
2017-10-01T13:40:39.544Z,73.30
2017-10-01T13:43:07.122Z,74.30
2017-10-01T13:45:35.367Z,73.60
2017-10-01T13:48:02.818Z,73.50
2017-10-01T13:50:30.378Z,75.40
2017-10-01T13:52:57.834Z,76.10
2017-10-01T13:55:25.298Z,75.60
2017-10-01T13:57:52.862Z,75.00
2017-10-01T14:00:20.331Z,77.50
2017-10-01T14:02:47.797Z,75.60
2017-10-01T14:05:21.046Z,74.80
2017-10-01T14:07:48.537Z,75.40
2017-10-01T14:10:15.990Z,74.60
2017-10-01T14:12:43.449Z,75.80
2017-10-01T14:15:10.915Z,76.50
2017-10-01T14:17:38.470Z,74.70
2017-10-01T14:20:05.925Z,76.60
2017-10-01T14:22:34.206Z,75.30
2017-10-01T14:25:01.692Z,75.20
2017-10-01T14:27:29.915Z,79.90
2017-10-01T14:29:57.384Z,79.20
2017-10-01T14:32:24.888Z,77.20
2017-10-01T14:34:53.132Z,76.00
2017-10-01T14:37:20.705Z,75.90
2017-10-01T14:39:48.166Z,74.40
2017-10-01T14:42:15.638Z,78.30
2017-10-01T14:44:43.858Z,73.80
2017-10-01T14:47:11.441Z,73.70
2017-10-01T14:49:38.899Z,74.50
2017-10-01T14:52:06.475Z,75.30
2017-10-01T14:54:33.934Z,76.50
2017-10-01T14:57:01.397Z,76.30
2017-10-01T14:59:28.866Z,76.10
2017-10-01T15:01:57.109Z,75.20
2017-10-01T15:04:24.634Z,75.10
2017-10-01T15:06:52.091Z,75.50
2017-10-01T15:09:19.589Z,75.80
2017-10-01T15:11:47.149Z,76.20
2017-10-01T15:14:14.616Z,77.00
2017-10-01T15:16:42.075Z,77.50
2017-10-01T15:19:09.635Z,80.90
2017-10-01T15:21:37.094Z,80.80
2017-10-01T15:24:04.574Z,80.40
2017-10-01T15:26:32.808Z,82.20
2017-10-01T15:29:00.291Z,82.20
2017-10-01T15:31:27.752Z,84.10
2017-10-01T15:33:55.397Z,84.70
2017-10-01T15:36:22.877Z,86.60
2017-10-01T15:38:50.338Z,86.60
2017-10-01T15:41:17.795Z,87.10
2017-10-01T15:43:45.269Z,88.40
2017-10-01T15:46:13.494Z,90.10
2017-10-01T15:48:40.962Z,90.10
2017-10-01T15:51:08.435Z,90.60
2017-10-01T15:53:35.885Z,90.60
2017-10-01T15:56:03.454Z,91.10
2017-10-01T15:58:30.910Z,91.60
2017-10-01T16:00:58.414Z,91.70
2017-10-01T16:03:25.867Z,91.90
2017-10-01T16:05:53.393Z,92.00
2017-10-01T16:08:20.855Z,92.00
2017-10-01T16:10:48.331Z,92.10
2017-10-01T16:13:16.550Z,93.00
2017-10-01T16:15:44.039Z,92.90
2017-10-01T16:18:11.599Z,93.50
2017-10-01T16:20:39.083Z,93.70
2017-10-01T16:23:07.313Z,94.10
2017-10-01T16:25:34.779Z,94.10
2017-10-01T16:28:02.240Z,94.30
2017-10-01T16:30:29.809Z,94.00
2017-10-01T16:32:57.363Z,94.30
2017-10-01T16:35:24.854Z,94.40
2017-10-01T16:37:53.107Z,94.80
2017-10-01T16:40:20.583Z,94.80
2017-10-01T16:42:48.144Z,94.70
2017-10-01T16:45:15.685Z,94.80
2017-10-01T16:47:43.151Z,94.90
2017-10-01T16:50:10.703Z,95.00
2017-10-01T16:52:38.266Z,95.10
2017-10-01T16:55:05.826Z,95.10
2017-10-01T16:57:33.384Z,95.30
2017-10-01T17:00:02.422Z,95.40
2017-10-01T17:02:29.963Z,95.40
2017-10-01T17:04:58.215Z,95.70
2017-10-01T17:07:25.691Z,95.70
2017-10-01T17:09:53.239Z,95.70
2017-10-01T17:12:22.226Z,95.80
2017-10-01T17:14:49.827Z,95.70
2017-10-01T17:17:18.063Z,96.40
2017-10-01T17:19:47.040Z,96.50
2017-10-01T17:22:14.535Z,96.50
2017-10-01T17:24:42.806Z,96.40
2017-10-01T17:27:11.052Z,96.30
2017-10-01T17:29:38.528Z,96.30
2017-10-01T17:32:06.906Z,96.10
2017-10-01T17:34:34.473Z,96.10
2017-10-01T17:37:02.747Z,96.10
2017-10-01T17:39:30.308Z,96.10
2017-10-01T17:41:57.771Z,95.90
2017-10-01T17:44:25.242Z,95.90
2017-10-01T17:46:53.507Z,96.50
2017-10-01T17:49:21.059Z,96.50
2017-10-01T17:51:48.524Z,96.50
2017-10-01T17:54:17.514Z,96.40
2017-10-01T17:56:44.979Z,96.40
2017-10-01T17:59:12.451Z,96.60
2017-10-01T18:01:40.689Z,96.60
2017-10-01T18:04:08.163Z,96.90
2017-10-01T18:06:36.427Z,96.30
2017-10-01T18:09:03.893Z,96.40
2017-10-01T18:11:31.355Z,96.50
2017-10-01T18:13:58.924Z,96.50
2017-10-01T18:16:26.389Z,96.50
2017-10-01T18:18:53.916Z,96.60
2017-10-01T18:21:21.376Z,96.70
2017-10-01T18:23:49.675Z,96.30
2017-10-01T18:26:17.826Z,96.50
2017-10-01T18:28:45.295Z,96.40
2017-10-01T18:31:12.767Z,96.10
2017-10-01T18:33:40.241Z,96.70
2017-10-01T18:36:07.784Z,96.50
2017-10-01T18:38:35.250Z,96.50
2017-10-01T18:41:02.795Z,96.60
2017-10-01T18:43:30.351Z,96.70
2017-10-01T18:45:58.011Z,96.70
2017-10-01T18:48:25.468Z,96.90
2017-10-01T18:50:52.939Z,97.00
2017-10-01T18:53:20.408Z,97.00
2017-10-01T18:55:47.955Z,97.20
2017-10-01T18:58:15.515Z,97.10
2017-10-01T19:00:43.760Z,96.90
2017-10-01T19:03:11.240Z,96.90
2017-10-01T19:05:38.715Z,96.90
2017-10-01T19:08:06.187Z,97.20
2017-10-01T19:10:34.464Z,97.70
2017-10-01T19:13:01.923Z,97.70
2017-10-01T19:15:30.175Z,97.50
2017-10-01T19:17:57.639Z,97.40
2017-10-01T19:20:25.123Z,97.40
2017-10-01T19:22:54.051Z,97.90
2017-10-01T19:25:21.549Z,97.70
2017-10-01T19:27:49.033Z,97.50
2017-10-01T19:30:17.264Z,97.70
2017-10-01T19:32:44.847Z,97.50
2017-10-01T19:35:12.315Z,98.20
2017-10-01T19:37:40.579Z,98.70
2017-10-01T19:40:08.038Z,98.50
2017-10-01T19:42:35.526Z,98.20
2017-10-01T19:45:02.988Z,98.30
2017-10-01T19:47:30.473Z,98.20
2017-10-01T19:49:57.922Z,98.70
2017-10-01T19:52:25.410Z,98.90
2017-10-01T19:54:52.868Z,98.70
2017-10-01T19:57:20.445Z,98.70
2017-10-01T19:59:48.013Z,98.60
2017-10-01T20:02:15.475Z,98.70
2017-10-01T20:04:43.029Z,98.80
2017-10-01T20:07:12.002Z,98.60
2017-10-01T20:09:39.596Z,98.50
2017-10-01T20:12:07.839Z,98.90
2017-10-01T20:14:36.126Z,98.90
2017-10-01T20:17:03.691Z,98.80
2017-10-01T20:19:31.252Z,98.60
2017-10-01T20:21:58.817Z,98.70
2017-10-01T20:24:27.783Z,98.80
2017-10-01T20:26:55.275Z,98.70
2017-10-01T20:29:22.739Z,98.70
2017-10-01T20:31:50.959Z,98.80
2017-10-01T20:34:18.432Z,98.80
2017-10-01T20:36:45.929Z,98.80
2017-10-01T20:39:13.383Z,98.60
2017-10-01T20:41:40.846Z,98.70
2017-10-01T20:44:09.077Z,98.90
2017-10-01T20:46:36.755Z,98.90
2017-10-01T20:49:05.762Z,99.10
2017-10-01T20:51:33.230Z,99.00
2017-10-01T20:54:02.205Z,99.20
2017-10-01T20:56:29.788Z,99.30
2017-10-01T20:58:57.252Z,99.40
2017-10-01T21:01:25.479Z,99.20
2017-10-01T21:03:52.959Z,99.10
2017-10-01T21:06:20.419Z,99.80
2017-10-01T21:08:47.896Z,99.70
2017-10-01T21:11:15.443Z,99.90
2017-10-01T21:13:43.015Z,99.40
2017-10-01T21:16:10.492Z,99.80
2017-10-01T21:18:38.731Z,99.90
2017-10-01T21:21:06.196Z,99.90
2017-10-01T21:23:33.689Z,99.90
2017-10-01T21:26:01.928Z,99.60
2017-10-01T21:28:29.386Z,99.70
2017-10-01T21:30:56.855Z,99.70
2017-10-01T21:33:25.078Z,99.80
2017-10-01T21:35:52.592Z,99.90
2017-10-01T21:38:20.155Z,99.50
2017-10-01T21:40:47.620Z,99.60
2017-10-01T21:43:15.847Z,99.30
2017-10-01T21:45:43.314Z,99.30
2017-10-01T21:48:11.710Z,99.10
2017-10-01T21:50:39.283Z,99.10
2017-10-01T21:53:06.839Z,98.40
2017-10-01T21:55:35.820Z,98.00
2017-10-01T21:58:03.276Z,97.90
2017-10-01T22:00:30.748Z,97.50
2017-10-01T22:02:58.227Z,97.60
2017-10-01T22:05:26.448Z,97.90
2017-10-01T22:07:53.931Z,97.90
2017-10-01T22:10:21.386Z,98.00
2017-10-01T22:12:48.859Z,97.30
2017-10-01T22:15:16.339Z,97.50
2017-10-01T22:17:44.587Z,96.50
2017-10-01T22:20:12.154Z,96.50
2017-10-01T22:22:39.636Z,97.10
2017-10-01T22:25:07.872Z,97.20
2017-10-01T22:27:35.342Z,97.10
2017-10-01T22:30:02.807Z,97.30
2017-10-01T22:32:30.273Z,97.40
2017-10-01T22:34:57.743Z,97.30
2017-10-01T22:37:25.996Z,96.80
2017-10-01T22:39:53.451Z,96.80
2017-10-01T22:42:21.687Z,97.30
2017-10-01T22:44:49.143Z,97.10
2017-10-01T22:47:16.623Z,97.60
2017-10-01T22:49:44.124Z,97.20
2017-10-01T22:52:12.370Z,97.00
2017-10-01T22:54:39.837Z,97.00
2017-10-01T22:57:07.395Z,97.30
2017-10-01T22:59:34.895Z,97.40
2017-10-01T23:02:03.124Z,98.00
2017-10-01T23:04:30.686Z,98.00
2017-10-01T23:06:58.164Z,98.20
2017-10-01T23:09:25.628Z,98.20
2017-10-01T23:11:53.864Z,97.30
2017-10-01T23:14:21.331Z,97.10
2017-10-01T23:16:48.820Z,96.60
2017-10-01T23:19:17.080Z,95.70
2017-10-01T23:21:45.303Z,95.30
2017-10-01T23:24:12.776Z,95.30
2017-10-01T23:26:40.255Z,95.70
2017-10-01T23:29:07.735Z,94.80
2017-10-01T23:31:35.236Z,94.00
2017-10-01T23:34:02.774Z,94.00
2017-10-01T23:36:31.023Z,94.60
2017-10-01T23:38:58.498Z,94.60
2017-10-01T23:41:26.039Z,94.80
2017-10-01T23:43:53.605Z,94.60
2017-10-01T23:46:21.115Z,95.00
2017-10-01T23:48:48.586Z,94.10
2017-10-01T23:51:16.088Z,95.30
2017-10-01T23:53:43.575Z,94.40
2017-10-01T23:56:11.045Z,93.90
2017-10-01T23:58:38.559Z,93.70
